sensor_id;sensor_type;location;lat;lon;timestamp;pressure;altitude;pressure_sealevel;temperature;humidity
21779;BME280;11050;52.222;20.916;2024-03-23T00:53:15;99309.00;;;9.92;100.00
21779;BME280;11050;52.222;20.916;2024-03-23T00:55:44;99310.66;;;9.93;100.00
21779;BME280;11050;52.222;20.916;2024-03-23T00:58:09;99316.66;;;9.90;100.00
21779;BME280;11050;52.222;20.916;2024-03-23T01:00:35;99303.78;;;9.96;100.00
21779;BME280;11050;52.222;20.916;2024-03-23T01:03:01;99297.19;;;9.92;100.00
21779;BME280;11050;52.222;20.916;2024-03-23T01:05:27;99291.16;;;9.90;100.00
21779;BME280;11050;52.222;20.916;2024-03-23T01:07:53;99295.00;;;9.94;100.00
21779;BME280;11050;52.222;20.916;2024-03-23T01:10:18;99298.84;;;9.93;100.00
21779;BME280;11050;52.222;20.916;2024-03-23T01:12:44;99307.63;;;9.95;100.00
21779;BME280;11050;52.222;20.916;2024-03-23T01:15:10;99286.50;;;9.95;100.00
21779;BME280;11050;52.222;20.916;2024-03-23T01:17:36;99290.63;;;9.88;100.00
21779;BME280;11050;52.222;20.916;2024-03-23T01:20:02;99280.72;;;9.92;100.00
21779;BME280;11050;52.222;20.916;2024-03-23T01:22:28;99277.44;;;9.85;100.00
21779;BME280;11050;52.222;20.916;2024-03-23T01:24:54;99285.41;;;9.91;100.00
21779;BME280;11050;52.222;20.916;2024-03-23T01:27:19;99276.06;;;9.92;100.00
21779;BME280;11050;52.222;20.916;2024-03-23T01:29:45;99285.69;;;9.90;100.00
21779;BME280;11050;52.222;20.916;2024-03-23T01:32:11;99276.34;;;9.86;100.00
21779;BME280;11050;52.222;20.916;2024-03-23T01:34:37;99283.47;;;9.87;100.00
21779;BME280;11050;52.222;20.916;2024-03-23T01:37:02;99285.66;;;9.85;100.00
21779;BME280;11050;52.222;20.916;2024-03-23T01:39:28;99277.72;;;9.83;100.00
21779;BME280;11050;52.222;20.916;2024-03-23T01:41:54;99285.66;;;9.85;100.00
21779;BME280;11050;52.222;20.916;2024-03-23T01:44:20;99290.06;;;9.86;100.00
21779;BME280;11050;52.222;20.916;2024-03-23T01:46:45;99270.88;;;9.86;100.00
21779;BME280;11050;52.222;20.916;2024-03-23T01:49:12;99270.88;;;9.86;100.00
21779;BME280;11050;52.222;20.916;2024-03-23T01:51:38;99258.50;;;9.88;100.00
21779;BME280;11050;52.222;20.916;2024-03-23T01:54:07;99261.53;;;9.82;100.00
21779;BME280;11050;52.222;20.916;2024-03-23T01:56:36;99278.81;;;9.87;100.00
21779;BME280;11050;52.222;20.916;2024-03-23T01:59:08;99267.00;;;9.82;100.00
21779;BME280;11050;52.222;20.916;2024-03-23T02:01:36;99268.38;;;9.89;100.00
21779;BME280;11050;52.222;20.916;2024-03-23T02:04:02;99261.00;;;9.90;100.00
21779;BME280;11050;52.222;20.916;2024-03-23T02:06:28;99244.53;;;9.90;100.00
21779;BME280;11050;52.222;20.916;2024-03-23T02:08:55;99258.50;;;9.88;100.00
21779;BME280;11050;52.222;20.916;2024-03-23T02:11:21;99256.03;;;9.92;100.00
21779;BME280;11050;52.222;20.916;2024-03-23T02:13:46;99251.66;;;9.91;100.00
21779;BME280;11050;52.222;20.916;2024-03-23T02:16:12;99251.94;;;9.89;100.00
21779;BME280;11050;52.222;20.916;2024-03-23T02:18:41;99259.06;;;9.95;100.00
21779;BME280;11050;52.222;20.916;2024-03-23T02:21:07;99248.63;;;9.92;100.00
21779;BME280;11050;52.222;20.916;2024-03-23T02:23:32;99245.31;;;9.90;100.00
21779;BME280;11050;52.222;20.916;2024-03-23T02:25:58;99246.16;;;9.91;100.00
21779;BME280;11050;52.222;20.916;2024-03-23T02:28:24;99247.53;;;9.93;100.00
21779;BME280;11050;52.222;20.916;2024-03-23T02:30:50;99249.72;;;9.96;100.00
21779;BME280;11050;52.222;20.916;2024-03-23T02:33:16;99251.38;;;10.02;100.00
21779;BME280;11050;52.222;20.916;2024-03-23T02:35:46;99248.34;;;10.04;100.00
21779;BME280;11050;52.222;20.916;2024-03-23T02:38:11;99246.97;;;10.01;100.00
21779;BME280;11050;52.222;20.916;2024-03-23T02:40:37;99245.31;;;10.00;100.00
21779;BME280;11050;52.222;20.916;2024-03-23T02:43:04;99241.75;;;10.05;100.00
21779;BME280;11050;52.222;20.916;2024-03-23T02:45:30;99238.47;;;10.03;100.00
21779;BME280;11050;52.222;20.916;2024-03-23T02:47:56;99238.47;;;10.03;100.00
21779;BME280;11050;52.222;20.916;2024-03-23T02:50:23;99232.16;;;10.02;100.00
21779;BME280;11050;52.222;20.916;2024-03-23T02:52:48;99217.31;;;10.03;100.00
21779;BME280;11050;52.222;20.916;2024-03-23T02:55:15;99216.53;;;10.03;100.00
21779;BME280;11050;52.222;20.916;2024-03-23T02:57:41;99212.41;;;10.00;100.00
21779;BME280;11050;52.222;20.916;2024-03-23T03:00:08;99217.88;;;10.00;100.00
21779;BME280;11050;52.222;20.916;2024-03-23T03:02:35;99217.06;;;10.00;100.00
21779;BME280;11050;52.222;20.916;2024-03-23T03:05:01;99208.53;;;10.01;100.00
21779;BME280;11050;52.222;20.916;2024-03-23T03:07:27;99202.25;;;10.01;100.00
21779;BME280;11050;52.222;20.916;2024-03-23T03:09:53;99199.75;;;10.04;100.00
21779;BME280;11050;52.222;20.916;2024-03-23T03:12:18;99197.84;;;10.05;100.00
21779;BME280;11050;52.222;20.916;2024-03-23T03:14:44;99197.03;;;10.04;100.00
21779;BME280;11050;52.222;20.916;2024-03-23T03:17:10;99197.56;;;10.06;100.00
21779;BME280;11050;52.222;20.916;2024-03-23T03:19:35;99198.91;;;10.09;100.00
21779;BME280;11050;52.222;20.916;2024-03-23T03:22:01;99203.06;;;10.11;100.00
21779;BME280;11050;52.222;20.916;2024-03-23T03:24:27;99197.56;;;10.16;100.00
21779;BME280;11050;52.222;20.916;2024-03-23T03:26:52;99198.69;;;10.10;100.00
21779;BME280;11050;52.222;20.916;2024-03-23T03:29:18;99207.19;;;10.14;100.00
21779;BME280;11050;52.222;20.916;2024-03-23T03:31:44;99208.00;;;10.14;100.00
21779;BME280;11050;52.222;20.916;2024-03-23T03:34:10;99203.34;;;10.15;100.00
21779;BME280;11050;52.222;20.916;2024-03-23T03:36:36;99211.56;;;10.15;100.00
21779;BME280;11050;52.222;20.916;2024-03-23T03:39:01;99206.63;;;10.17;100.00
21779;BME280;11050;52.222;20.916;2024-03-23T03:41:31;99203.06;;;10.11;100.00
21779;BME280;11050;52.222;20.916;2024-03-23T03:43:57;99204.16;;;10.15;100.00
21779;BME280;11050;52.222;20.916;2024-03-23T03:46:28;99209.66;;;10.15;100.00
21779;BME280;11050;52.222;20.916;2024-03-23T03:48:54;99206.66;;;10.12;100.00
21779;BME280;11050;52.222;20.916;2024-03-23T03:51:20;99205.81;;;10.11;100.00
21779;BME280;11050;52.222;20.916;2024-03-23T03:53:46;99197.28;;;10.08;100.00
21779;BME280;11050;52.222;20.916;2024-03-23T03:56:12;99200.03;;;10.13;100.00
21779;BME280;11050;52.222;20.916;2024-03-23T03:58:41;99202.50;;;10.19;100.00
21779;BME280;11050;52.222;20.916;2024-03-23T04:01:07;99193.41;;;10.24;100.00
21779;BME280;11050;52.222;20.916;2024-03-23T04:03:33;99184.38;;;10.23;100.00
21779;BME280;11050;52.222;20.916;2024-03-23T04:05:58;99187.94;;;10.19;100.00
21779;BME280;11050;52.222;20.916;2024-03-23T04:08:24;99191.78;;;10.23;100.00
21779;BME280;11050;52.222;20.916;2024-03-23T04:10:50;99179.16;;;10.27;100.00
21779;BME280;11050;52.222;20.916;2024-03-23T04:13:15;99181.63;;;10.28;100.00
21779;BME280;11050;52.222;20.916;2024-03-23T04:15:42;99188.75;;;10.24;100.00
21779;BME280;11050;52.222;20.916;2024-03-23T04:18:08;99183.56;;;10.23;100.00
21779;BME280;11050;52.222;20.916;2024-03-23T04:20:34;99177.78;;;10.24;100.00
21779;BME280;11050;52.222;20.916;2024-03-23T04:23:00;99172.53;;;10.28;100.00
21779;BME280;11050;52.222;20.916;2024-03-23T04:25:26;99159.94;;;10.27;100.00
21779;BME280;11050;52.222;20.916;2024-03-23T04:27:52;99167.63;;;10.25;100.00
21779;BME280;11050;52.222;20.916;2024-03-23T04:30:18;99153.59;;;10.26;100.00
21779;BME280;11050;52.222;20.916;2024-03-23T04:32:45;99156.66;;;10.25;100.00
21779;BME280;11050;52.222;20.916;2024-03-23T04:35:11;99156.34;;;10.26;100.00
21779;BME280;11050;52.222;20.916;2024-03-23T04:37:37;99149.50;;;10.24;100.00
21779;BME280;11050;52.222;20.916;2024-03-23T04:40:04;99155.81;;;10.24;100.00
21779;BME280;11050;52.222;20.916;2024-03-23T04:42:31;99146.22;;;10.27;100.00
21779;BME280;11050;52.222;20.916;2024-03-23T04:44:57;99164.31;;;10.28;100.00
21779;BME280;11050;52.222;20.916;2024-03-23T04:47:24;99149.25;;;10.25;100.00
21779;BME280;11050;52.222;20.916;2024-03-23T04:49:49;99152.25;;;10.24;100.00
21779;BME280;11050;52.222;20.916;2024-03-23T04:52:17;99142.91;;;10.25;100.00
21779;BME280;11050;52.222;20.916;2024-03-23T04:54:43;99133.84;;;10.29;100.00
21779;BME280;11050;52.222;20.916;2024-03-23T04:57:09;99123.13;;;10.28;100.00
21779;BME280;11050;52.222;20.916;2024-03-23T04:59:35;99122.28;;;10.32;100.00
21779;BME280;11050;52.222;20.916;2024-03-23T05:02:00;99141.22;;;10.34;100.00
21779;BME280;11050;52.222;20.916;2024-03-23T05:04:27;99127.50;;;10.34;100.00
21779;BME280;11050;52.222;20.916;2024-03-23T05:06:53;99130.81;;;10.31;100.00
21779;BME280;11050;52.222;20.916;2024-03-23T05:09:19;99131.91;;;10.35;100.00
21779;BME280;11050;52.222;20.916;2024-03-23T05:11:45;99133.56;;;10.31;100.00
21779;BME280;11050;52.222;20.916;2024-03-23T05:14:14;99135.47;;;10.30;100.00
21779;BME280;11050;52.222;20.916;2024-03-23T05:16:40;99137.09;;;10.31;100.00
21779;BME280;11050;52.222;20.916;2024-03-23T05:19:06;99132.69;;;10.35;100.00
21779;BME280;11050;52.222;20.916;2024-03-23T05:21:32;99133.28;;;10.32;100.00
21779;BME280;11050;52.222;20.916;2024-03-23T05:23:58;99135.47;;;10.30;100.00
21779;BME280;11050;52.222;20.916;2024-03-23T05:26:24;99126.69;;;10.28;100.00
21779;BME280;11050;52.222;20.916;2024-03-23T05:28:49;99124.22;;;10.32;100.00
21779;BME280;11050;52.222;20.916;2024-03-23T05:31:27;99125.88;;;10.28;100.00
21779;BME280;11050;52.222;20.916;2024-03-23T05:33:53;99128.06;;;10.31;100.00
21779;BME280;11050;52.222;20.916;2024-03-23T05:36:18;99121.75;;;10.30;100.00
21779;BME280;11050;52.222;20.916;2024-03-23T05:38:44;99120.09;;;10.34;100.00
21779;BME280;11050;52.222;20.916;2024-03-23T05:41:10;99121.47;;;10.37;100.00
21779;BME280;11050;52.222;20.916;2024-03-23T05:43:36;99117.06;;;10.36;100.00
21779;BME280;11050;52.222;20.916;2024-03-23T05:46:02;99119.81;;;10.36;100.00
21779;BME280;11050;52.222;20.916;2024-03-23T05:48:28;99116.22;;;10.35;100.00
21779;BME280;11050;52.222;20.916;2024-03-23T05:50:56;99116.22;;;10.40;100.00
21779;BME280;11050;52.222;20.916;2024-03-23T05:53:24;99114.28;;;10.41;100.00
21779;BME280;11050;52.222;20.916;2024-03-23T05:55:51;99109.06;;;10.44;100.00
21779;BME280;11050;52.222;20.916;2024-03-23T05:58:19;99115.94;;;10.42;100.00
21779;BME280;11050;52.222;20.916;2024-03-23T06:00:46;99114.03;;;10.42;100.00
21779;BME280;11050;52.222;20.916;2024-03-23T06:03:12;99098.63;;;10.41;100.00
21779;BME280;11050;52.222;20.916;2024-03-23T06:05:38;99101.63;;;10.45;100.00
21779;BME280;11050;52.222;20.916;2024-03-23T06:08:04;99095.06;;;10.46;100.00
21779;BME280;11050;52.222;20.916;2024-03-23T06:10:30;99096.38;;;10.54;100.00
21779;BME280;11050;52.222;20.916;2024-03-23T06:12:57;99100.22;;;10.52;100.00
21779;BME280;11050;52.222;20.916;2024-03-23T06:15:25;99104.34;;;10.55;100.00
21779;BME280;11050;52.222;20.916;2024-03-23T06:17:52;99114.78;;;10.53;100.00
21779;BME280;11050;52.222;20.916;2024-03-23T06:20:18;99101.63;;;10.50;100.00
21779;BME280;11050;52.222;20.916;2024-03-23T06:22:44;99099.13;;;10.54;100.00
21779;BME280;11050;52.222;20.916;2024-03-23T06:25:10;99097.72;;;10.56;100.00
21779;BME280;11050;52.222;20.916;2024-03-23T06:27:38;99101.03;;;10.53;100.00
21779;BME280;11050;52.222;20.916;2024-03-23T06:30:05;99095.81;;;10.57;100.00
21779;BME280;11050;52.222;20.916;2024-03-23T06:32:32;99095.50;;;10.63;100.00
21779;BME280;11050;52.222;20.916;2024-03-23T06:34:58;99095.75;;;10.67;100.00
21779;BME280;11050;52.222;20.916;2024-03-23T06:37:25;99093.00;;;10.67;100.00
21779;BME280;11050;52.222;20.916;2024-03-23T06:39:51;99086.97;;;10.65;100.00
21779;BME280;11050;52.222;20.916;2024-03-23T06:42:17;99093.00;;;10.67;100.00
21779;BME280;11050;52.222;20.916;2024-03-23T06:44:43;99083.66;;;10.68;100.00
21779;BME280;11050;52.222;20.916;2024-03-23T06:47:09;99075.66;;;10.71;100.00
21779;BME280;11050;52.222;20.916;2024-03-23T06:49:35;99070.44;;;10.75;100.00
21779;BME280;11050;52.222;20.916;2024-03-23T06:52:01;99063.78;;;10.81;100.00
21779;BME280;11050;52.222;20.916;2024-03-23T06:54:27;99068.19;;;10.82;100.00
21779;BME280;11050;52.222;20.916;2024-03-23T06:56:52;99071.22;;;10.80;100.00
21779;BME280;11050;52.222;20.916;2024-03-23T06:59:18;99059.69;;;10.78;100.00
21779;BME280;11050;52.222;20.916;2024-03-23T07:01:44;99066.25;;;10.82;100.00
21779;BME280;11050;52.222;20.916;2024-03-23T07:04:09;99074.50;;;10.82;100.00
21779;BME280;11050;52.222;20.916;2024-03-23T07:06:43;99070.09;;;10.81;100.00
21779;BME280;11050;52.222;20.916;2024-03-23T07:09:09;99063.22;;;10.84;100.00
21779;BME280;11050;52.222;20.916;2024-03-23T07:11:35;99070.34;;;10.85;100.00
21779;BME280;11050;52.222;20.916;2024-03-23T07:14:01;99055.78;;;10.84;100.00
21779;BME280;11050;52.222;20.916;2024-03-23T07:16:28;99064.03;;;10.84;100.00
21779;BME280;11050;52.222;20.916;2024-03-23T07:18:54;99058.28;;;10.81;100.00
21779;BME280;11050;52.222;20.916;2024-03-23T07:21:21;99056.13;;;10.78;100.00
21779;BME280;11050;52.222;20.916;2024-03-23T07:23:47;99052.00;;;10.75;100.00
21779;BME280;11050;52.222;20.916;2024-03-23T07:26:13;99059.41;;;10.80;100.00
21779;BME280;11050;52.222;20.916;2024-03-23T07:28:40;99059.66;;;10.83;100.00
21779;BME280;11050;52.222;20.916;2024-03-23T07:31:13;99054.69;;;10.85;100.00
21779;BME280;11050;52.222;20.916;2024-03-23T07:33:44;99056.06;;;10.83;100.00
21779;BME280;11050;52.222;20.916;2024-03-23T07:36:11;99049.78;;;10.77;100.00
21779;BME280;11050;52.222;20.916;2024-03-23T07:38:36;99048.69;;;10.78;100.00
21779;BME280;11050;52.222;20.916;2024-03-23T07:41:10;99047.63;;;10.74;100.00
21779;BME280;11050;52.222;20.916;2024-03-23T07:43:38;99034.97;;;10.73;100.00
21779;BME280;11050;52.222;20.916;2024-03-23T07:46:05;99034.44;;;10.71;100.00
21779;BME280;11050;52.222;20.916;2024-03-23T07:48:31;99027.84;;;10.72;100.00
21779;BME280;11050;52.222;20.916;2024-03-23T07:53:24;99025.00;;;10.87;100.00
21779;BME280;11050;52.222;20.916;2024-03-23T07:55:58;99013.66;;;10.94;100.00
21779;BME280;11050;52.222;20.916;2024-03-23T07:58:26;99020.97;;;11.08;100.00
21779;BME280;11050;52.222;20.916;2024-03-23T08:00:55;99006.78;;;11.25;100.00
21779;BME280;11050;52.222;20.916;2024-03-23T08:03:22;99002.00;;;11.35;100.00
21779;BME280;11050;52.222;20.916;2024-03-23T08:05:48;99009.09;;;11.41;100.00
21779;BME280;11050;52.222;20.916;2024-03-23T08:08:14;99003.59;;;11.41;100.00
21779;BME280;11050;52.222;20.916;2024-03-23T08:10:52;99004.66;;;11.45;100.00
21779;BME280;11050;52.222;20.916;2024-03-23T08:13:19;98998.31;;;11.45;100.00
21779;BME280;11050;52.222;20.916;2024-03-23T08:15:45;98995.56;;;11.45;100.00
21779;BME280;11050;52.222;20.916;2024-03-23T08:18:12;99004.56;;;11.56;100.00
21779;BME280;11050;52.222;20.916;2024-03-23T08:20:41;98988.59;;;11.53;100.00
21779;BME280;11050;52.222;20.916;2024-03-23T08:23:08;98989.66;;;11.57;100.00
21779;BME280;11050;52.222;20.916;2024-03-23T08:25:35;98989.59;;;11.67;100.00
21779;BME280;11050;52.222;20.916;2024-03-23T08:28:01;98989.22;;;11.73;100.00
21779;BME280;11050;52.222;20.916;2024-03-23T08:30:28;98984.47;;;11.79;100.00
21779;BME280;11050;52.222;20.916;2024-03-23T08:32:53;98979.72;;;11.84;100.00
21779;BME280;11050;52.222;20.916;2024-03-23T08:35:19;98973.47;;;12.02;100.00
21779;BME280;11050;52.222;20.916;2024-03-23T08:37:45;98964.69;;;12.19;100.00
21779;BME280;11050;52.222;20.916;2024-03-23T08:40:12;98962.09;;;12.46;100.00
21779;BME280;11050;52.222;20.916;2024-03-23T08:42:38;98943.50;;;12.70;100.00
21779;BME280;11050;52.222;20.916;2024-03-23T08:45:04;98947.97;;;12.98;100.00
21779;BME280;11050;52.222;20.916;2024-03-23T08:47:34;98945.72;;;13.32;100.00
21779;BME280;11050;52.222;20.916;2024-03-23T08:50:01;98937.38;;;13.65;100.00
21779;BME280;11050;52.222;20.916;2024-03-23T08:52:27;98939.59;;;13.90;100.00
21779;BME280;11050;52.222;20.916;2024-03-23T08:54:55;98937.75;;;13.85;100.00
21779;BME280;11050;52.222;20.916;2024-03-23T08:57:23;98935.41;;;13.79;100.00
21779;BME280;11050;52.222;20.916;2024-03-23T08:59:48;98929.38;;;13.90;100.00
21779;BME280;11050;52.222;20.916;2024-03-23T09:02:15;98919.47;;;13.89;100.00
21779;BME280;11050;52.222;20.916;2024-03-23T09:04:40;98922.09;;;13.81;100.00
21779;BME280;11050;52.222;20.916;2024-03-23T09:07:06;98907.91;;;13.87;100.00
21779;BME280;11050;52.222;20.916;2024-03-23T09:09:32;98913.50;;;13.96;100.00
21779;BME280;11050;52.222;20.916;2024-03-23T09:11:58;98903.75;;;14.12;100.00
21779;BME280;11050;52.222;20.916;2024-03-23T09:14:23;98894.19;;;14.32;100.00
21779;BME280;11050;52.222;20.916;2024-03-23T09:16:52;98897.28;;;14.52;100.00
21779;BME280;11050;52.222;20.916;2024-03-23T09:19:18;98886.09;;;14.79;100.00
21779;BME280;11050;52.222;20.916;2024-03-23T09:21:43;98886.63;;;15.12;100.00
21779;BME280;11050;52.222;20.916;2024-03-23T09:24:09;98875.22;;;15.13;100.00
21779;BME280;11050;52.222;20.916;2024-03-23T09:26:35;98878.41;;;14.98;100.00
21779;BME280;11050;52.222;20.916;2024-03-23T09:29:00;98874.97;;;14.93;100.00
21779;BME280;11050;52.222;20.916;2024-03-23T09:31:26;98888.09;;;14.87;100.00
21779;BME280;11050;52.222;20.916;2024-03-23T09:33:52;98880.38;;;14.76;100.00
21779;BME280;11050;52.222;20.916;2024-03-23T09:36:18;98877.94;;;14.74;100.00
21779;BME280;11050;52.222;20.916;2024-03-23T09:38:44;98870.13;;;14.76;100.00
21779;BME280;11050;52.222;20.916;2024-03-23T09:41:10;98877.31;;;14.77;100.00
21779;BME280;11050;52.222;20.916;2024-03-23T09:43:36;98868.06;;;14.82;100.00
21779;BME280;11050;52.222;20.916;2024-03-23T09:46:02;98856.22;;;14.90;100.00
21779;BME280;11050;52.222;20.916;2024-03-23T09:48:28;98857.41;;;14.97;100.00
21779;BME280;11050;52.222;20.916;2024-03-23T09:50:54;98851.31;;;15.17;100.00
21779;BME280;11050;52.222;20.916;2024-03-23T09:53:20;98839.66;;;15.38;100.00
21779;BME280;11050;52.222;20.916;2024-03-23T09:55:48;98836.47;;;15.44;100.00
21779;BME280;11050;52.222;20.916;2024-03-23T09:58:17;98834.81;;;15.43;100.00
21779;BME280;11050;52.222;20.916;2024-03-23T10:00:43;98825.69;;;15.43;100.00
21779;BME280;11050;52.222;20.916;2024-03-23T10:03:09;98822.13;;;15.42;100.00
21779;BME280;11050;52.222;20.916;2024-03-23T10:05:37;98812.38;;;15.53;100.00
21779;BME280;11050;52.222;20.916;2024-03-23T10:10:45;98793.16;;;15.65;100.00
21779;BME280;11050;52.222;20.916;2024-03-23T10:13:27;98781.97;;;15.87;100.00
21779;BME280;11050;52.222;20.916;2024-03-23T10:15:59;98781.78;;;16.01;100.00
21779;BME280;11050;52.222;20.916;2024-03-23T10:18:26;98770.88;;;15.96;100.00
21779;BME280;11050;52.222;20.916;2024-03-23T10:21:07;98762.38;;;15.84;100.00
21779;BME280;11050;52.222;20.916;2024-03-23T10:23:41;98753.91;;;15.80;99.03
21779;BME280;11050;52.222;20.916;2024-03-23T10:26:21;98755.53;;;15.73;100.00
21779;BME280;11050;52.222;20.916;2024-03-23T10:28:59;98739.41;;;15.92;98.10
21779;BME280;11050;52.222;20.916;2024-03-23T10:31:34;98743.00;;;16.01;97.29
21779;BME280;11050;52.222;20.916;2024-03-23T10:34:04;98742.31;;;16.30;95.26
21779;BME280;11050;52.222;20.916;2024-03-23T10:36:30;98731.22;;;16.38;92.57
21779;BME280;11050;52.222;20.916;2024-03-23T10:38:56;98725.66;;;16.38;91.29
21779;BME280;11050;52.222;20.916;2024-03-23T10:41:28;98725.81;;;16.50;92.92
21779;BME280;11050;52.222;20.916;2024-03-23T10:43:58;98718.59;;;16.66;91.87
21779;BME280;11050;52.222;20.916;2024-03-23T10:46:24;98707.72;;;16.90;90.35
21779;BME280;11050;52.222;20.916;2024-03-23T10:48:49;98720.34;;;17.08;89.73
21779;BME280;11050;52.222;20.916;2024-03-23T10:51:15;98708.34;;;17.25;86.49
21779;BME280;11050;52.222;20.916;2024-03-23T10:53:41;98703.47;;;17.43;82.53
21779;BME280;11050;52.222;20.916;2024-03-23T10:56:09;98692.44;;;17.34;82.66
21779;BME280;11050;52.222;20.916;2024-03-23T10:58:54;98676.41;;;17.31;83.85
21779;BME280;11050;52.222;20.916;2024-03-23T11:01:20;98667.25;;;17.60;81.22
21779;BME280;11050;52.222;20.916;2024-03-23T11:03:46;98670.13;;;17.84;80.57
21779;BME280;11050;52.222;20.916;2024-03-23T11:06:38;98663.03;;;18.07;77.68
21779;BME280;11050;52.222;20.916;2024-03-23T11:09:42;98674.88;;;18.49;74.17
21779;BME280;11050;52.222;20.916;2024-03-23T11:12:27;98685.72;;;18.99;70.25
21779;BME280;11050;52.222;20.916;2024-03-23T11:17:31;98674.09;;;19.33;66.22
21779;BME280;11050;52.222;20.916;2024-03-23T11:20:03;98674.19;;;19.48;65.31
21779;BME280;11050;52.222;20.916;2024-03-23T11:22:47;98660.16;;;19.72;65.47
21779;BME280;11050;52.222;20.916;2024-03-23T11:25:18;98651.28;;;20.10;62.01
21779;BME280;11050;52.222;20.916;2024-03-23T11:27:45;98650.69;;;20.17;60.80
21779;BME280;11050;52.222;20.916;2024-03-23T11:30:24;98653.75;;;19.84;62.62
21779;BME280;11050;52.222;20.916;2024-03-23T11:32:52;98637.78;;;20.24;60.30
21779;BME280;11050;52.222;20.916;2024-03-23T11:35:42;98650.75;;;20.48;58.50
21779;BME280;11050;52.222;20.916;2024-03-23T11:38:17;98634.19;;;21.02;53.33
21779;BME280;11050;52.222;20.916;2024-03-23T11:40:50;98631.78;;;21.54;51.85
21779;BME280;11050;52.222;20.916;2024-03-23T11:43:18;98624.75;;;22.40;49.19
21779;BME280;11050;52.222;20.916;2024-03-23T11:45:47;98610.75;;;22.85;42.90
21779;BME280;11050;52.222;20.916;2024-03-23T11:48:16;98602.88;;;22.04;41.11
21779;BME280;11050;52.222;20.916;2024-03-23T11:50:50;98599.75;;;21.13;46.17
21779;BME280;11050;52.222;20.916;2024-03-23T11:53:26;98598.97;;;20.82;47.89
21779;BME280;11050;52.222;20.916;2024-03-23T11:55:59;98593.09;;;20.87;48.65
21779;BME280;11050;52.222;20.916;2024-03-23T11:58:27;98577.59;;;21.05;47.98
21779;BME280;11050;52.222;20.916;2024-03-23T12:00:57;98583.66;;;20.75;49.13
21779;BME280;11050;52.222;20.916;2024-03-23T12:03:24;98566.31;;;20.35;48.26
21779;BME280;11050;52.222;20.916;2024-03-23T12:05:55;98573.94;;;20.38;49.23
21779;BME280;11050;52.222;20.916;2024-03-23T12:08:29;98572.25;;;21.15;45.50
21779;BME280;11050;52.222;20.916;2024-03-23T12:11:12;98560.81;;;21.05;45.77
21779;BME280;11050;52.222;20.916;2024-03-23T12:13:40;98559.97;;;20.69;46.88
21779;BME280;11050;52.222;20.916;2024-03-23T12:16:17;98555.16;;;20.20;48.08
21779;BME280;11050;52.222;20.916;2024-03-23T12:18:45;98563.72;;;19.83;50.47
21779;BME280;11050;52.222;20.916;2024-03-23T12:21:12;98543.28;;;19.64;51.22
21779;BME280;11050;52.222;20.916;2024-03-23T12:23:41;98539.88;;;19.43;52.35
21779;BME280;11050;52.222;20.916;2024-03-23T12:26:14;98541.25;;;19.09;53.52
21779;BME280;11050;52.222;20.916;2024-03-23T12:28:41;98534.47;;;18.82;53.92
21779;BME280;11050;52.222;20.916;2024-03-23T12:31:07;98530.31;;;18.40;54.35
21779;BME280;11050;52.222;20.916;2024-03-23T12:33:32;98523.59;;;18.29;55.45
21779;BME280;11050;52.222;20.916;2024-03-23T12:35:58;98520.13;;;18.08;56.47
21779;BME280;11050;52.222;20.916;2024-03-23T12:38:24;98518.69;;;17.90;58.28
21779;BME280;11050;52.222;20.916;2024-03-23T12:40:50;98509.19;;;17.79;60.67
21779;BME280;11050;52.222;20.916;2024-03-23T12:43:17;98510.91;;;17.71;61.24
21779;BME280;11050;52.222;20.916;2024-03-23T12:45:50;98510.09;;;17.59;62.69
21779;BME280;11050;52.222;20.916;2024-03-23T12:48:16;98511.16;;;17.46;63.71
21779;BME280;11050;52.222;20.916;2024-03-23T12:50:42;98496.88;;;17.35;64.43
21779;BME280;11050;52.222;20.916;2024-03-23T12:53:08;98490.66;;;17.38;65.25
21779;BME280;11050;52.222;20.916;2024-03-23T12:55:37;98495.75;;;17.36;67.16
21779;BME280;11050;52.222;20.916;2024-03-23T12:58:03;98475.56;;;17.48;67.83
21779;BME280;11050;52.222;20.916;2024-03-23T13:00:30;98467.00;;;17.65;66.94
21779;BME280;11050;52.222;20.916;2024-03-23T13:02:56;98460.09;;;17.83;66.00
21779;BME280;11050;52.222;20.916;2024-03-23T13:05:21;98464.16;;;17.97;63.80
21779;BME280;11050;52.222;20.916;2024-03-23T13:07:48;98448.53;;;18.05;63.77
21779;BME280;11050;52.222;20.916;2024-03-23T13:10:14;98449.91;;;18.11;63.63
21779;BME280;11050;52.222;20.916;2024-03-23T13:12:41;98438.34;;;18.09;62.89
21779;BME280;11050;52.222;20.916;2024-03-23T13:15:08;98430.91;;;18.01;61.97
21779;BME280;11050;52.222;20.916;2024-03-23T13:17:34;98430.69;;;17.94;62.05
21779;BME280;11050;52.222;20.916;2024-03-23T13:20:00;98425.03;;;17.90;62.72
21779;BME280;11050;52.222;20.916;2024-03-23T13:22:26;98427.34;;;17.88;62.38
21779;BME280;11050;52.222;20.916;2024-03-23T13:24:51;98411.94;;;17.91;62.86
21779;BME280;11050;52.222;20.916;2024-03-23T13:27:17;98416.44;;;17.95;62.59
21779;BME280;11050;52.222;20.916;2024-03-23T13:29:44;98401.97;;;18.02;62.95
21779;BME280;11050;52.222;20.916;2024-03-23T13:32:11;98401.38;;;18.09;62.21
21779;BME280;11050;52.222;20.916;2024-03-23T13:34:37;98386.81;;;18.12;61.99
21779;BME280;11050;52.222;20.916;2024-03-23T13:37:03;98385.88;;;18.08;59.44
21779;BME280;11050;52.222;20.916;2024-03-23T13:39:30;98377.06;;;18.06;59.19
21779;BME280;11050;52.222;20.916;2024-03-23T13:41:56;98367.09;;;18.05;59.12
21779;BME280;11050;52.222;20.916;2024-03-23T13:44:22;98372.22;;;17.90;57.46